Time;durP1;ratioP1;P1;durP2;ratioP2;P2;SDS_P1;SDS_P2;PMS_P1;PMS_P2;Temp;Humidity;BMP_temperature;BMP_pressure;BME280_temperature;BME280_humidity;BME280_pressure;Samples;Min_cycle;Max_cycle;Signal;HPM_P1;HPM_P2
2022/11/19 00:00:46;;;;;;;12.13;8.47;;;9.80;99.90;;;;;;5030207;28;21073;-76
2022/11/19 00:03:33;;;;;;;12.93;8.60;;;9.80;99.90;;;;;;5028115;28;20439;-76
2022/11/19 00:06:20;;;;;;;11.13;8.00;;;9.80;99.90;;;;;;5023535;28;20620;-76
2022/11/19 00:09:09;;;;;;;11.97;9.57;;;9.80;99.90;;;;;;5033263;28;20460;-76
2022/11/19 00:15:00;;;;;;;13.50;8.00;;;9.90;99.90;;;;;;5026872;28;20462;-77
2022/11/19 00:17:46;;;;;;;14.40;8.90;;;9.90;99.90;;;;;;5027106;28;20445;-76
2022/11/19 00:20:32;;;;;;;17.77;9.00;;;9.90;99.90;;;;;;5029054;28;20497;-77
2022/11/19 00:23:18;;;;;;;13.37;8.87;;;9.80;99.90;;;;;;5026832;28;20953;-78
2022/11/19 00:26:06;;;;;;;13.80;10.47;;;9.80;99.90;;;;;;5031629;28;20826;-75
2022/11/19 00:28:51;;;;;;;13.00;10.30;;;9.80;99.90;;;;;;5027648;28;20445;-76
2022/11/19 00:31:38;;;;;;;15.10;8.83;;;9.70;99.90;;;;;;5031873;28;20455;-76
2022/11/19 00:34:23;;;;;;;10.03;9.00;;;9.70;99.90;;;;;;5034921;28;20484;-77
2022/11/19 00:37:09;;;;;;;11.60;8.77;;;9.80;99.90;;;;;;5029481;28;20526;-76
2022/11/19 00:39:55;;;;;;;10.60;9.40;;;9.80;99.90;;;;;;5031123;28;20473;-76
2022/11/19 00:43:45;;;;;;;11.47;8.23;;;9.90;99.90;;;;;;5020653;28;20460;-75
2022/11/19 00:45:47;;;;;;;16.27;8.83;;;9.90;99.90;;;;;;5028223;28;20463;-76
2022/11/19 00:48:35;;;;;;;18.10;11.17;;;9.80;99.90;;;;;;5023884;28;20459;-76
2022/11/19 00:51:22;;;;;;;16.33;10.17;;;9.90;99.90;;;;;;5024835;28;20676;-76
2022/11/19 00:54:08;;;;;;;11.47;9.40;;;9.80;99.90;;;;;;5027818;28;20480;-76
2022/11/19 00:56:53;;;;;;;19.33;9.70;;;9.90;99.90;;;;;;5028645;28;20521;-75
2022/11/19 00:59:39;;;;;;;13.27;9.20;;;9.90;99.90;;;;;;5027701;28;20807;-76
2022/11/19 01:02:24;;;;;;;11.63;8.30;;;9.90;99.90;;;;;;5025093;28;20501;-76
2022/11/19 01:05:11;;;;;;;13.80;8.53;;;9.90;99.90;;;;;;5026233;28;20461;-75
2022/11/19 01:07:57;;;;;;;10.50;8.10;;;10.00;99.90;;;;;;5032165;28;20452;-76
2022/11/19 01:10:43;;;;;;;10.00;8.10;;;9.90;99.90;;;;;;5031571;28;20444;-77
2022/11/19 01:13:34;;;;;;;13.50;9.40;;;9.90;99.90;;;;;;5026062;28;20558;-77
2022/11/19 01:16:22;;;;;;;10.60;9.00;;;9.80;99.90;;;;;;5031681;28;20618;-76
2022/11/19 01:19:10;;;;;;;18.27;9.33;;;9.80;99.90;;;;;;5031695;28;20454;-76
2022/11/19 01:21:57;;;;;;;12.20;10.50;;;9.70;99.90;;;;;;5027812;28;20530;-76
2022/11/19 01:24:43;;;;;;;13.87;9.90;;;9.70;99.90;;;;;;5025885;28;20418;-77
2022/11/19 01:27:28;;;;;;;15.03;12.03;;;9.70;99.90;;;;;;5029798;28;20546;-76
2022/11/19 01:30:15;;;;;;;13.77;12.30;;;9.70;99.90;;;;;;5026039;28;20592;-76
2022/11/19 01:33:00;;;;;;;13.03;11.63;;;9.80;99.90;;;;;;5020845;28;20448;-77
2022/11/19 01:35:55;;;;;;;16.03;12.70;;;9.80;99.90;;;;;;5021695;28;20554;-76
2022/11/19 01:38:42;;;;;;;24.13;13.40;;;9.70;99.90;;;;;;5028983;28;20916;-76
2022/11/19 01:41:30;;;;;;;14.80;12.37;;;9.60;99.90;;;;;;5025755;28;20527;-76
2022/11/19 01:44:56;;;;;;;17.93;12.40;;;9.70;99.90;;;;;;5028762;28;20451;-77
2022/11/19 01:47:42;;;;;;;16.70;12.13;;;9.70;99.90;;;;;;5030199;28;20478;-76
2022/11/19 01:50:31;;;;;;;15.70;14.10;;;9.70;99.90;;;;;;5037264;28;20449;-76
2022/11/19 01:53:18;;;;;;;17.37;13.43;;;9.70;99.90;;;;;;5023222;28;20444;-76
2022/11/19 01:56:07;;;;;;;14.20;12.13;;;9.70;99.90;;;;;;5032468;28;20566;-76
2022/11/19 01:58:58;;;;;;;14.60;11.60;;;9.80;99.90;;;;;;5036234;28;20542;-76
2022/11/19 02:01:45;;;;;;;15.20;11.43;;;9.80;99.90;;;;;;5031091;28;20975;-76
2022/11/19 02:04:32;;;;;;;12.00;10.67;;;9.80;99.90;;;;;;5028827;28;20818;-76
2022/11/19 02:07:25;;;;;;;15.63;11.60;;;9.80;99.90;;;;;;5028054;28;20505;-76
2022/11/19 02:10:10;;;;;;;13.77;12.33;;;9.80;99.90;;;;;;5028893;28;20426;-78
2022/11/19 02:13:06;;;;;;;13.80;12.00;;;9.90;99.90;;;;;;5018728;28;20449;-75
2022/11/19 02:15:59;;;;;;;20.07;11.53;;;9.80;99.90;;;;;;5023292;28;20447;-76
2022/11/19 02:18:51;;;;;;;15.87;11.53;;;9.90;99.90;;;;;;5035803;28;20413;-77
2022/11/19 02:21:46;;;;;;;12.23;10.97;;;9.90;99.90;;;;;;5028927;28;20447;-77
2022/11/19 02:24:51;;;;;;;12.80;11.17;;;9.90;99.90;;;;;;5035815;28;20508;-76
2022/11/19 02:28:14;;;;;;;18.10;11.37;;;9.90;99.90;;;;;;5038657;28;20447;-76
2022/11/19 02:31:08;;;;;;;15.50;11.50;;;9.90;99.90;;;;;;5024954;28;20965;-77
2022/11/19 02:33:59;;;;;;;15.13;11.80;;;9.90;99.90;;;;;;5022484;28;20890;-77
2022/11/19 02:36:52;;;;;;;18.10;10.50;;;9.90;99.90;;;;;;5025447;28;20987;-76
2022/11/19 02:39:41;;;;;;;17.30;10.37;;;9.70;99.90;;;;;;5020017;28;20433;-76
2022/11/19 02:42:31;;;;;;;15.30;10.93;;;9.80;99.90;;;;;;5020343;28;20560;-77
2022/11/19 02:45:22;;;;;;;15.27;10.70;;;9.70;99.90;;;;;;5020238;28;20535;-76
2022/11/19 02:48:14;;;;;;;14.93;11.40;;;9.80;99.90;;;;;;5023952;28;20436;-77
2022/11/19 02:51:01;;;;;;;14.30;10.53;;;9.80;99.90;;;;;;5022322;28;20444;-76
2022/11/19 02:53:47;;;;;;;16.60;11.93;;;9.80;99.90;;;;;;5024579;28;20823;-76
2022/11/19 02:56:51;;;;;;;19.80;12.73;;;9.80;99.90;;;;;;5022910;28;21108;-76
2022/11/19 03:06:00;;;;;;;14.80;11.50;;;9.80;99.90;;;;;;5024907;28;20518;-77
2022/11/19 03:08:47;;;;;;;21.43;11.83;;;9.80;99.90;;;;;;5021253;28;20819;-76
2022/11/19 03:11:33;;;;;;;20.13;12.80;;;9.80;99.90;;;;;;5020283;28;20440;-76
2022/11/19 03:17:52;;;;;;;12.33;11.07;;;9.80;99.90;;;;;;4965978;28;20515;-76
2022/11/19 03:20:41;;;;;;;14.70;11.17;;;9.80;99.90;;;;;;5021606;28;20830;-77
2022/11/19 03:23:32;;;;;;;16.30;11.33;;;9.80;99.90;;;;;;5034371;28;20785;-76
2022/11/19 03:26:24;;;;;;;11.50;10.30;;;9.90;99.90;;;;;;5034064;28;20435;-76
2022/11/19 03:29:12;;;;;;;15.53;11.50;;;9.80;99.90;;;;;;5038892;28;20419;-76
2022/11/19 03:32:03;;;;;;;18.27;11.00;;;9.80;99.90;;;;;;5025998;28;20509;-76
2022/11/19 03:34:53;;;;;;;12.93;10.97;;;9.80;99.90;;;;;;5032455;28;20973;-76
2022/11/19 03:37:40;;;;;;;14.00;11.73;;;9.80;99.90;;;;;;5032463;28;20473;-76
2022/11/19 03:40:30;;;;;;;15.50;11.83;;;9.70;99.90;;;;;;5025627;28;20549;-77
2022/11/19 03:43:20;;;;;;;17.57;11.40;;;9.70;99.90;;;;;;5027454;28;20451;-77
2022/11/19 03:46:11;;;;;;;18.50;11.33;;;9.70;99.90;;;;;;5032215;28;20511;-77
2022/11/19 03:48:58;;;;;;;13.07;11.10;;;9.70;99.90;;;;;;5027557;28;20466;-76
2022/11/19 03:51:52;;;;;;;14.63;11.37;;;9.70;99.90;;;;;;5021113;28;20456;-76
2022/11/19 03:54:39;;;;;;;19.40;12.40;;;9.60;99.90;;;;;;5027325;28;20476;-76
2022/11/19 03:57:26;;;;;;;14.00;12.53;;;9.60;99.90;;;;;;5026636;28;20468;-76
2022/11/19 04:00:13;;;;;;;20.10;12.30;;;9.60;99.90;;;;;;5031416;28;20449;-76
2022/11/19 04:02:59;;;;;;;16.00;12.10;;;9.60;99.90;;;;;;5026396;28;20833;-77
2022/11/19 04:05:44;;;;;;;16.77;11.30;;;9.60;99.90;;;;;;5030551;28;20546;-77
2022/11/19 04:08:30;;;;;;;16.07;11.77;;;9.70;99.90;;;;;;5032754;28;21152;-76
2022/11/19 04:11:15;;;;;;;14.60;10.80;;;9.70;99.90;;;;;;5025911;28;20570;-76
2022/11/19 04:14:02;;;;;;;16.27;11.13;;;9.70;99.90;;;;;;5027186;28;20538;-76
2022/11/19 04:16:48;;;;;;;16.50;10.13;;;9.60;99.90;;;;;;5031844;28;20482;-76
2022/11/19 04:19:33;;;;;;;13.23;11.37;;;9.50;99.90;;;;;;5020558;28;21011;-76
2022/11/19 04:22:19;;;;;;;14.90;11.10;;;9.40;99.90;;;;;;5027792;28;20494;-77
2022/11/19 04:25:05;;;;;;;23.63;12.17;;;9.50;99.90;;;;;;5023144;28;20798;-76
2022/11/19 04:27:51;;;;;;;13.93;11.70;;;9.50;99.90;;;;;;5025079;28;20534;-77
2022/11/19 04:30:38;;;;;;;13.43;11.40;;;9.60;99.90;;;;;;5019988;28;20623;-77
2022/11/19 04:33:23;;;;;;;14.13;11.70;;;9.60;99.90;;;;;;5027675;28;20499;-77
2022/11/19 04:36:09;;;;;;;12.73;11.40;;;9.70;99.90;;;;;;5028494;28;20507;-77
2022/11/19 04:38:55;;;;;;;14.80;11.20;;;9.70;99.90;;;;;;5027967;28;20523;-77
2022/11/19 04:41:41;;;;;;;13.60;11.00;;;9.80;99.90;;;;;;5031986;28;20467;-77
2022/11/19 04:44:26;;;;;;;15.77;10.83;;;9.80;99.90;;;;;;5035492;28;20650;-76
2022/11/19 04:47:13;;;;;;;13.13;10.60;;;9.80;99.90;;;;;;5031901;28;20552;-76
2022/11/19 04:49:58;;;;;;;14.53;10.90;;;9.60;99.90;;;;;;5027040;28;20471;-76
2022/11/19 04:52:44;;;;;;;15.77;11.83;;;9.70;99.90;;;;;;5033683;28;20421;-76
2022/11/19 04:55:30;;;;;;;15.77;10.90;;;9.70;99.90;;;;;;5041185;28;20492;-77
2022/11/19 04:58:15;;;;;;;16.70;11.27;;;9.70;99.90;;;;;;5037202;28;20560;-76
2022/11/19 05:01:01;;;;;;;15.63;12.10;;;9.70;99.90;;;;;;5019734;28;20447;-76
2022/11/19 05:03:49;;;;;;;14.97;12.43;;;9.60;99.90;;;;;;5034555;28;20431;-77
2022/11/19 05:06:35;;;;;;;15.53;11.87;;;9.60;99.90;;;;;;5028936;28;20476;-76
2022/11/19 05:09:20;;;;;;;15.17;11.20;;;9.60;99.90;;;;;;5021720;28;20446;-77
2022/11/19 05:12:07;;;;;;;17.20;12.47;;;9.60;99.90;;;;;;5025630;28;20444;-77
2022/11/19 05:14:53;;;;;;;18.70;12.60;;;9.70;99.90;;;;;;5032095;28;20472;-76
2022/11/19 05:17:38;;;;;;;17.83;10.43;;;9.50;99.90;;;;;;5026956;28;21099;-76
2022/11/19 05:20:25;;;;;;;14.07;11.27;;;9.50;99.90;;;;;;5022144;28;20452;-77
2022/11/19 05:23:11;;;;;;;14.43;11.27;;;9.40;99.90;;;;;;5028981;28;20561;-76
2022/11/19 05:25:57;;;;;;;13.50;10.73;;;9.40;99.90;;;;;;5033203;28;20468;-77
2022/11/19 05:28:42;;;;;;;16.60;10.43;;;9.40;99.90;;;;;;5018264;28;20441;-77
2022/11/19 05:31:28;;;;;;;11.30;9.30;;;9.50;99.90;;;;;;5028820;28;20460;-77
2022/11/19 05:34:14;;;;;;;13.60;10.63;;;9.40;99.90;;;;;;5023872;28;20443;-76
2022/11/19 05:37:01;;;;;;;15.43;10.80;;;9.50;99.90;;;;;;5025397;28;20451;-76
2022/11/19 05:39:46;;;;;;;14.70;10.70;;;9.40;99.90;;;;;;5025512;28;20443;-77
2022/11/19 05:42:32;;;;;;;12.80;9.53;;;9.50;99.90;;;;;;5023535;28;20780;-76
2022/11/19 05:45:18;;;;;;;15.47;11.13;;;9.50;99.90;;;;;;5033167;28;20807;-77
2022/11/19 05:48:03;;;;;;;15.60;11.10;;;9.40;99.90;;;;;;5031665;28;20452;-77
2022/11/19 05:50:49;;;;;;;14.10;11.10;;;9.40;99.90;;;;;;5032135;28;20448;-77
2022/11/19 05:53:36;;;;;;;15.47;11.57;;;9.30;99.90;;;;;;5036667;28;20447;-77
2022/11/19 05:56:22;;;;;;;15.93;11.33;;;9.30;99.90;;;;;;5028677;28;20476;-77
2022/11/19 05:59:07;;;;;;;22.30;11.90;;;9.30;99.90;;;;;;5023276;28;20859;-77
2022/11/19 06:01:53;;;;;;;13.50;10.83;;;9.30;99.90;;;;;;5026059;28;20781;-77
2022/11/19 06:04:39;;;;;;;12.97;9.73;;;9.30;99.90;;;;;;5026283;28;20460;-77
2022/11/19 06:07:24;;;;;;;12.67;10.97;;;9.30;99.90;;;;;;5031722;28;20480;-77
2022/11/19 06:10:12;;;;;;;14.93;11.30;;;9.30;99.90;;;;;;5023304;28;20556;-77
2022/11/19 06:12:57;;;;;;;13.63;10.50;;;9.40;99.90;;;;;;5022420;28;20440;-77
2022/11/19 06:15:43;;;;;;;16.13;10.47;;;9.40;99.90;;;;;;5026395;28;20454;-76
2022/11/19 06:18:29;;;;;;;10.67;9.03;;;9.50;99.90;;;;;;5021597;28;20793;-77
2022/11/19 06:21:14;;;;;;;9.87;8.83;;;9.60;99.90;;;;;;5027833;28;20863;-77
2022/11/19 06:24:00;;;;;;;12.97;10.23;;;9.60;99.90;;;;;;5036157;28;20545;-77
2022/11/19 06:26:47;;;;;;;8.60;6.40;;;9.50;99.90;;;;;;5020351;28;20467;-77
2022/11/19 06:29:32;;;;;;;7.80;4.67;;;9.50;99.90;;;;;;5024661;28;20449;-77
2022/11/19 06:32:18;;;;;;;6.97;4.13;;;9.40;99.90;;;;;;5025925;28;21014;-77
2022/11/19 06:35:04;;;;;;;5.77;3.90;;;9.30;99.90;;;;;;5028598;28;20552;-77
2022/11/19 06:37:50;;;;;;;4.67;3.37;;;9.20;99.90;;;;;;5022329;28;20432;-77
2022/11/19 06:40:35;;;;;;;3.97;3.30;;;9.10;99.90;;;;;;5028080;28;20443;-77
2022/11/19 06:43:22;;;;;;;3.83;2.93;;;9.10;99.90;;;;;;5032635;28;20448;-77
2022/11/19 06:46:08;;;;;;;3.77;2.70;;;9.10;99.90;;;;;;5030768;28;20909;-77
2022/11/19 06:48:53;;;;;;;6.03;2.40;;;9.10;99.90;;;;;;5025398;28;20449;-76
2022/11/19 06:51:39;;;;;;;4.07;2.30;;;9.00;99.90;;;;;;5027801;28;20417;-77
2022/11/19 06:54:25;;;;;;;3.80;2.50;;;9.00;99.90;;;;;;5033657;28;20448;-77
2022/11/19 06:57:10;;;;;;;3.00;2.23;;;8.90;99.90;;;;;;5026233;28;20555;-76
2022/11/19 06:59:57;;;;;;;3.70;2.60;;;9.00;99.90;;;;;;5030085;28;20506;-77
2022/11/19 07:02:43;;;;;;;3.13;2.17;;;9.00;99.90;;;;;;5031768;28;20543;-77
2022/11/19 07:05:29;;;;;;;2.87;2.37;;;9.00;99.90;;;;;;5026784;28;20498;-77
2022/11/19 07:08:14;;;;;;;8.60;3.20;;;8.90;99.90;;;;;;5027141;28;20433;-77
2022/11/19 07:11:00;;;;;;;3.50;2.93;;;8.80;99.90;;;;;;5033814;28;20423;-77
2022/11/19 07:13:58;;;;;;;4.30;3.30;;;8.80;99.90;;;;;;5035506;28;20423;-77
2022/11/19 07:16:45;;;;;;;5.20;3.73;;;8.80;99.90;;;;;;5025129;28;20574;-77
2022/11/19 07:19:31;;;;;;;5.90;4.07;;;8.70;99.90;;;;;;5038338;28;20516;-77
2022/11/19 07:22:16;;;;;;;3.90;2.70;;;8.60;99.90;;;;;;5027670;28;20951;-76
2022/11/19 07:25:02;;;;;;;4.57;2.40;;;8.50;99.90;;;;;;5031897;28;20818;-77
2022/11/19 07:27:48;;;;;;;4.00;2.47;;;8.40;99.90;;;;;;5025100;28;20511;-77
2022/11/19 07:30:33;;;;;;;4.70;2.60;;;8.30;99.90;;;;;;5025622;28;21007;-77
2022/11/19 07:33:20;;;;;;;2.83;2.13;;;8.30;99.90;;;;;;5033005;28;20443;-77
2022/11/19 07:36:07;;;;;;;4.40;2.70;;;8.30;99.90;;;;;;5026931;28;20492;-77
2022/11/19 07:38:53;;;;;;;3.17;2.30;;;8.30;99.90;;;;;;5024170;28;20472;-76
2022/11/19 07:44:42;;;;;;;3.70;2.80;;;8.30;99.90;;;;;;5032614;28;20474;-77
2022/11/19 07:47:27;;;;;;;3.10;2.40;;;8.30;99.90;;;;;;5030632;28;20960;-76
2022/11/19 07:50:14;;;;;;;4.40;2.73;;;8.30;99.90;;;;;;5030418;28;20775;-76
2022/11/19 07:53:00;;;;;;;5.00;3.10;;;8.30;99.90;;;;;;5022920;28;20482;-77
2022/11/19 07:55:46;;;;;;;4.00;3.13;;;8.30;99.90;;;;;;5026180;28;20454;-77
2022/11/19 07:58:32;;;;;;;6.70;4.63;;;8.30;99.90;;;;;;5029303;28;20506;-77
2022/11/19 08:01:20;;;;;;;6.40;4.73;;;8.30;99.90;;;;;;5042725;28;20844;-77
2022/11/19 08:04:05;;;;;;;7.80;4.67;;;8.30;99.90;;;;;;5042937;28;20474;-77
2022/11/19 08:06:52;;;;;;;8.40;4.90;;;8.10;99.90;;;;;;5024924;28;20559;-77
2022/11/19 08:09:38;;;;;;;3.90;3.50;;;8.10;99.90;;;;;;5038349;28;20466;-77
2022/11/19 08:12:23;;;;;;;4.40;3.27;;;8.10;99.90;;;;;;5051008;28;20580;-77
2022/11/19 08:15:10;;;;;;;3.17;2.40;;;8.00;99.90;;;;;;5046638;28;20394;-77
2022/11/19 08:21:05;;;;;;;2.73;2.03;;;8.10;99.90;;;;;;5016508;28;20464;-77
2022/11/19 08:23:52;;;;;;;3.87;2.60;;;8.10;99.90;;;;;;5026091;28;20489;-77
2022/11/19 08:26:39;;;;;;;4.37;2.47;;;8.10;99.90;;;;;;5026290;28;20953;-76
2022/11/19 08:29:25;;;;;;;3.27;2.03;;;8.10;99.90;;;;;;5037381;28;20440;-76
2022/11/19 08:32:10;;;;;;;2.43;1.90;;;8.20;99.90;;;;;;5036819;28;20456;-77
2022/11/19 08:34:56;;;;;;;2.27;1.70;;;8.20;99.90;;;;;;5045447;28;20462;-77
2022/11/19 08:37:41;;;;;;;2.60;2.30;;;8.20;99.90;;;;;;5029853;28;20433;-76
2022/11/19 08:40:28;;;;;;;2.77;2.20;;;8.30;99.90;;;;;;5028055;28;20483;-76
2022/11/19 08:43:13;;;;;;;3.00;2.60;;;8.30;99.90;;;;;;5028251;28;20978;-77
2022/11/19 08:45:59;;;;;;;5.47;3.00;;;8.30;99.90;;;;;;5024960;28;20550;-77
2022/11/19 08:48:44;;;;;;;4.37;3.50;;;8.30;99.90;;;;;;5029282;28;20852;-77
2022/11/19 08:51:30;;;;;;;4.70;3.37;;;8.30;99.90;;;;;;5037422;28;20447;-77
2022/11/19 08:54:15;;;;;;;5.77;3.10;;;8.20;99.90;;;;;;5028177;28;20411;-77
2022/11/19 08:57:02;;;;;;;3.50;2.63;;;8.20;99.90;;;;;;5029000;28;20503;-77
2022/11/19 08:59:47;;;;;;;3.67;2.80;;;8.20;99.90;;;;;;5033500;28;20501;-77
2022/11/19 09:02:33;;;;;;;4.63;3.20;;;8.10;99.90;;;;;;5030227;28;20419;-77
2022/11/19 09:05:18;;;;;;;3.17;2.22;;;8.10;99.90;;;;;;5025924;28;20448;-77
2022/11/19 09:08:06;;;;;;;4.10;2.80;;;8.10;99.90;;;;;;5027074;28;20284;-77
2022/11/19 09:10:52;;;;;;;3.43;2.23;;;8.10;99.90;;;;;;5033471;28;21039;-77
2022/11/19 09:13:39;;;;;;;3.10;2.20;;;8.10;99.90;;;;;;5033414;28;20980;-77
2022/11/19 09:16:25;;;;;;;4.77;2.43;;;8.20;99.90;;;;;;5024338;28;20304;-77
2022/11/19 09:19:10;;;;;;;2.10;1.63;;;8.10;99.90;;;;;;5040650;28;20461;-77
2022/11/19 09:21:56;;;;;;;1.80;1.40;;;8.10;99.90;;;;;;5025487;28;20957;-77
2022/11/19 09:24:41;;;;;;;3.27;2.10;;;8.10;99.90;;;;;;5027388;28;20569;-77
2022/11/19 09:27:27;;;;;;;3.37;2.30;;;8.10;99.90;;;;;;5025745;28;20467;-77
2022/11/19 09:30:15;;;;;;;2.53;1.65;;;8.00;99.90;;;;;;5028906;28;20448;-76
2022/11/19 09:33:00;;;;;;;4.30;1.80;;;8.00;99.90;;;;;;5028947;28;20214;-77
2022/11/19 09:35:46;;;;;;;2.53;1.77;;;8.00;99.90;;;;;;5021167;28;22165;-77
2022/11/19 09:38:33;;;;;;;4.15;2.00;;;7.90;99.90;;;;;;5033947;28;20511;-77
2022/11/19 09:41:35;;;;;;;3.55;2.30;;;7.90;99.90;;;;;;5039148;28;20206;-77
2022/11/19 09:44:33;;;;;;;2.67;2.00;;;8.00;99.90;;;;;;5035649;28;20409;-76
2022/11/19 09:47:29;;;;;;;3.20;2.20;;;8.10;99.90;;;;;;5025428;28;20984;-77
2022/11/19 09:50:18;;;;;;;4.17;2.00;;;8.10;99.90;;;;;;5028941;28;20584;-77
2022/11/19 09:53:11;;;;;;;3.27;2.20;;;8.00;99.90;;;;;;5028189;28;20926;-76
2022/11/19 09:55:58;;;;;;;2.23;1.70;;;8.00;99.90;;;;;;5015976;28;20545;-76
2022/11/19 09:58:45;;;;;;;3.03;2.10;;;8.10;99.90;;;;;;5030757;28;20422;-77
2022/11/19 10:01:31;;;;;;;2.27;1.63;;;8.10;99.90;;;;;;5038040;28;20529;-76
2022/11/19 10:04:22;;;;;;;1.63;1.30;;;8.20;99.90;;;;;;5026250;28;20968;-76
2022/11/19 10:07:13;;;;;;;1.90;1.50;;;8.10;99.90;;;;;;5035431;28;20701;-76
2022/11/19 10:10:11;;;;;;;2.63;1.50;;;8.00;99.90;;;;;;5032108;28;20779;-76
2022/11/19 10:13:13;;;;;;;1.90;1.30;;;8.00;99.90;;;;;;5027563;28;20457;-76
2022/11/19 10:16:15;;;;;;;3.30;1.55;;;8.00;99.90;;;;;;5020842;28;20495;-76
2022/11/19 10:19:10;;;;;;;2.53;2.00;;;8.00;99.90;;;;;;5029022;28;20663;-77
2022/11/19 10:22:06;;;;;;;3.35;1.45;;;8.00;99.90;;;;;;5027682;28;20462;-76
2022/11/19 10:24:59;;;;;;;5.80;1.77;;;7.90;99.90;;;;;;5015889;28;20215;-76
2022/11/19 10:27:50;;;;;;;3.80;1.58;;;7.90;99.90;;;;;;5033294;28;20439;-76
2022/11/19 10:30:36;;;;;;;2.40;2.00;;;7.80;99.90;;;;;;5024016;28;20206;-76
2022/11/19 10:33:27;;;;;;;3.45;2.80;;;7.70;99.90;;;;;;5031749;28;20749;-76
2022/11/19 10:36:19;;;;;;;2.57;2.03;;;7.60;99.90;;;;;;5028050;28;20308;-77
2022/11/19 10:39:14;;;;;;;3.90;2.33;;;7.70;99.90;;;;;;5031696;28;20538;-76
2022/11/19 10:42:08;;;;;;;2.92;2.38;;;7.60;99.90;;;;;;5035941;28;20447;-77
2022/11/19 10:44:58;;;;;;;4.13;2.85;;;7.60;99.90;;;;;;5027855;28;20213;-77
2022/11/19 10:47:47;;;;;;;3.93;2.70;;;7.60;99.90;;;;;;5026883;28;20210;-76
2022/11/19 10:50:33;;;;;;;3.00;2.40;;;7.50;99.90;;;;;;5033936;28;20969;-76
2022/11/19 10:53:24;;;;;;;3.03;2.13;;;7.40;99.90;;;;;;5029536;28;21040;-76
2022/11/19 10:56:15;;;;;;;2.90;1.97;;;7.40;99.90;;;;;;5021292;28;20851;-76
2022/11/19 10:59:11;;;;;;;8.13;2.10;;;7.50;99.90;;;;;;5036929;28;20459;-76
2022/11/19 11:02:01;;;;;;;3.27;2.13;;;7.50;99.90;;;;;;5024488;28;20815;-76
2022/11/19 11:05:01;;;;;;;3.00;2.00;;;7.50;99.90;;;;;;5024853;28;20419;-76
2022/11/19 11:07:53;;;;;;;2.97;2.33;;;7.50;99.90;;;;;;5045035;28;20416;-76
2022/11/19 11:10:43;;;;;;;3.20;2.50;;;7.60;99.90;;;;;;5039117;28;20923;-76
2022/11/19 11:16:45;;;;;;;3.08;2.67;;;7.70;99.90;;;;;;5034299;28;20476;-75
2022/11/19 11:19:31;;;;;;;2.63;2.07;;;7.70;99.90;;;;;;5050511;28;20201;-76
2022/11/19 11:22:19;;;;;;;3.20;2.22;;;7.70;99.90;;;;;;5034527;28;20415;-76
2022/11/19 11:25:18;;;;;;;2.90;2.25;;;7.70;99.90;;;;;;5040199;28;20271;-77
2022/11/19 11:28:07;;;;;;;2.67;2.00;;;7.80;99.90;;;;;;5041106;28;20197;-76
2022/11/19 11:30:56;;;;;;;4.60;2.07;;;7.80;99.90;;;;;;5037642;28;20440;-76
2022/11/19 11:33:53;;;;;;;3.63;2.33;;;7.70;99.90;;;;;;5024887;28;20440;-76
2022/11/19 11:36:40;;;;;;;2.93;2.00;;;7.70;99.90;;;;;;5045517;28;20221;-77
2022/11/19 11:39:29;;;;;;;3.10;2.50;;;7.70;99.90;;;;;;5046975;28;20509;-77
2022/11/19 11:42:19;;;;;;;3.10;2.20;;;7.60;99.90;;;;;;5042757;28;20423;-76
2022/11/19 11:45:07;;;;;;;2.63;1.93;;;7.70;99.90;;;;;;5036865;28;20475;-76
2022/11/19 11:47:57;;;;;;;3.53;2.00;;;7.70;99.90;;;;;;5046348;28;20416;-76
2022/11/19 11:50:45;;;;;;;3.57;2.10;;;7.80;99.90;;;;;;5045730;28;20928;-76
2022/11/19 11:53:33;;;;;;;2.93;2.00;;;7.80;99.90;;;;;;5031212;28;20458;-76
2022/11/19 11:56:21;;;;;;;3.10;2.43;;;7.80;99.90;;;;;;5032088;28;20475;-76
2022/11/19 11:59:25;;;;;;;3.60;3.00;;;7.80;99.90;;;;;;5041350;28;20793;-77
2022/11/19 12:02:20;;;;;;;5.33;3.30;;;7.80;99.90;;;;;;5036597;28;21195;-76
2022/11/19 12:05:17;;;;;;;3.67;2.77;;;7.70;99.90;;;;;;5040115;28;20420;-77
2022/11/19 12:08:06;;;;;;;4.70;2.90;;;7.80;99.90;;;;;;5047206;28;20420;-76
2022/11/19 12:10:58;;;;;;;3.25;2.60;;;7.80;99.90;;;;;;5036231;28;20482;-76
2022/11/19 12:13:56;;;;;;;2.72;2.38;;;7.80;99.90;;;;;;5032745;28;20250;-76
2022/11/19 12:16:55;;;;;;;4.13;3.20;;;7.70;99.90;;;;;;5051884;28;20227;-76
2022/11/19 12:20:03;;;;;;;4.43;3.10;;;7.70;99.90;;;;;;5038706;28;20474;-76
2022/11/19 12:23:07;;;;;;;4.43;3.40;;;7.70;99.90;;;;;;5028818;28;20205;-76
2022/11/19 12:26:11;;;;;;;3.67;3.13;;;7.70;99.90;;;;;;5029760;28;20567;-75
2022/11/19 12:29:13;;;;;;;4.63;3.58;;;7.80;99.90;;;;;;5044442;28;20426;-76
2022/11/19 12:32:15;;;;;;;4.15;3.03;;;7.80;99.90;;;;;;5032846;28;20213;-75
2022/11/19 12:35:16;;;;;;;4.30;3.20;;;7.80;99.90;;;;;;5032365;28;20252;-76
2022/11/19 12:38:34;;;;;;;4.27;3.30;;;7.90;99.90;;;;;;5043972;28;20596;-76
2022/11/19 12:41:57;;;;;;;6.63;2.80;;;7.80;99.90;;;;;;5037237;28;20411;-76
2022/11/19 12:44:53;;;;;;;5.90;4.18;;;7.70;99.90;;;;;;5037122;28;20479;-76
2022/11/19 12:47:55;;;;;;;6.35;4.55;;;7.70;99.90;;;;;;5036216;28;20217;-77
2022/11/19 12:50:48;;;;;;;5.97;3.95;;;7.70;99.90;;;;;;5031904;28;20213;-76
2022/11/19 12:53:50;;;;;;;4.50;4.00;;;7.70;99.90;;;;;;5037844;28;20198;-77
2022/11/19 12:56:45;;;;;;;4.47;3.83;;;7.70;99.90;;;;;;5033102;28;20683;-77
2022/11/19 12:59:43;;;;;;;5.57;3.90;;;7.70;99.90;;;;;;5049987;28;20201;-77
2022/11/19 13:02:31;;;;;;;3.88;3.28;;;7.70;99.90;;;;;;5037634;28;20567;-75
2022/11/19 13:05:20;;;;;;;4.50;3.53;;;7.60;99.90;;;;;;5024416;28;20235;-77
2022/11/19 13:08:13;;;;;;;3.80;2.93;;;7.60;99.90;;;;;;5039750;28;20423;-76
2022/11/19 13:11:07;;;;;;;4.23;3.20;;;7.60;99.90;;;;;;5028189;28;20527;-77
2022/11/19 13:13:58;;;;;;;3.90;2.53;;;7.60;99.90;;;;;;5029366;28;20530;-76
2022/11/19 13:16:44;;;;;;;2.67;1.85;;;7.60;99.90;;;;;;5029035;28;20229;-77
2022/11/19 13:19:33;;;;;;;2.72;2.30;;;7.50;99.90;;;;;;5031000;28;20213;-77
2022/11/19 13:22:23;;;;;;;5.83;2.80;;;7.50;99.90;;;;;;5042913;28;20205;-76
2022/11/19 13:25:17;;;;;;;3.40;2.80;;;7.50;99.90;;;;;;5025065;28;20460;-77
2022/11/19 13:28:13;;;;;;;3.67;2.75;;;7.50;99.90;;;;;;5029871;28;20211;-77
2022/11/19 13:31:04;;;;;;;4.70;3.30;;;7.50;99.90;;;;;;5037076;28;20197;-77
2022/11/19 13:33:55;;;;;;;8.70;3.40;;;7.50;99.90;;;;;;5045853;28;20209;-77
2022/11/19 13:36:46;;;;;;;3.55;3.22;;;7.60;99.90;;;;;;5015704;28;20495;-77
2022/11/19 13:39:36;;;;;;;5.88;3.65;;;7.50;99.90;;;;;;5048516;28;20229;-77
2022/11/19 13:45:30;;;;;;;5.95;4.72;;;7.30;99.90;;;;;;5035332;28;20287;-77
2022/11/19 13:48:25;;;;;;;5.43;4.30;;;7.30;99.90;;;;;;5043378;28;20256;-77
2022/11/19 13:51:20;;;;;;;9.93;6.10;;;7.30;99.90;;;;;;5037255;28;20566;-77
2022/11/19 13:54:08;;;;;;;19.13;7.13;;;7.30;99.90;;;;;;5027215;28;20791;-77
2022/11/19 13:56:57;;;;;;;9.55;6.68;;;7.30;99.90;;;;;;5028695;28;20484;-77
2022/11/19 13:59:46;;;;;;;8.95;6.55;;;7.30;99.90;;;;;;5035689;28;20564;-77
2022/11/19 14:03:10;;;;;;;8.77;6.10;;;7.20;99.90;;;;;;5027350;28;20549;-77
2022/11/19 14:06:14;;;;;;;7.40;6.63;;;7.20;99.90;;;;;;5021527;28;20221;-77
2022/11/19 14:09:22;;;;;;;10.40;5.25;;;7.30;99.90;;;;;;5032448;28;20969;-77
2022/11/19 14:12:32;;;;;;;8.80;5.70;;;7.30;99.90;;;;;;5026708;28;20240;-77
2022/11/19 14:28:35;;;;;;;3.55;2.65;;;7.40;99.90;;;;;;5044414;28;20197;-77
2022/11/19 14:31:21;;;;;;;4.10;3.03;;;7.50;99.90;;;;;;5039980;28;20205;-77
2022/11/19 14:34:26;;;;;;;4.07;3.35;;;7.50;99.90;;;;;;5027279;28;20344;-77
2022/11/19 14:37:17;;;;;;;4.87;3.27;;;7.50;99.90;;;;;;5032871;28;20224;-77
2022/11/19 14:40:10;;;;;;;4.55;3.65;;;7.60;99.90;;;;;;5035370;28;21151;-77
2022/11/19 14:46:28;;;;;;;5.17;4.17;;;7.50;99.90;;;;;;5032250;28;20713;-77
2022/11/19 14:49:28;;;;;;;5.18;3.60;;;7.40;99.90;;;;;;5044414;28;20423;-77
2022/11/19 14:52:24;;;;;;;5.60;4.60;;;7.30;99.90;;;;;;5041751;28;20299;-78
2022/11/19 14:55:20;;;;;;;6.70;5.20;;;7.30;99.90;;;;;;5020902;28;20449;-77
2022/11/19 14:58:07;;;;;;;6.78;4.70;;;7.20;99.90;;;;;;5043542;28;20479;-77
2022/11/19 15:01:06;;;;;;;6.03;4.75;;;7.20;99.90;;;;;;5046746;28;20254;-77
2022/11/19 15:03:55;;;;;;;6.72;4.68;;;7.20;99.90;;;;;;5036105;28;20569;-77
2022/11/19 15:06:45;;;;;;;8.40;4.78;;;7.10;99.90;;;;;;5028272;28;20553;-78
2022/11/19 15:09:50;;;;;;;6.80;5.38;;;7.10;99.90;;;;;;5048147;28;20565;-77
2022/11/19 15:12:47;;;;;;;8.07;4.72;;;7.00;99.90;;;;;;5039941;28;20208;-77
2022/11/19 15:15:40;;;;;;;5.97;4.80;;;7.10;99.90;;;;;;5032214;28;20224;-77
2022/11/19 15:19:01;;;;;;;6.85;5.90;;;7.10;99.90;;;;;;5038174;28;20311;-78
2022/11/19 15:22:13;;;;;;;8.60;6.90;;;7.10;99.90;;;;;;5023253;28;20201;-77
2022/11/19 15:25:17;;;;;;;5.30;4.32;;;7.10;99.90;;;;;;5026499;28;20248;-78
2022/11/19 15:28:13;;;;;;;4.30;3.88;;;7.10;99.90;;;;;;5028607;28;20737;-78
2022/11/19 15:31:16;;;;;;;7.32;6.20;;;7.00;99.90;;;;;;5024937;28;20242;-78